バンコク/スワンナプーム の空港の天気 - METARとTAF

スワンナプーム国際空港 ( VTBS / BKK ) - タイ サムットプラーカーン県 (バンコク近郊)
飛行場実況気象(Metar)
観測時間02/28 07:30 ICT (02/28 00:30 UTC)
風向・風速北北東 3m/s
視程9000m
天気現象
なし
気温26℃
湿度61%
気圧1013hPa
METARVTBS 280030Z 03006KT 010V100 9000 NSC 26/18 Q1013 NOSIG
過去の天気等 Google飛行場航空写真 Wunderground天気予報

過去48時間のMETAR

飛行場予報(TAF)
発表時間: 2/28 06:00 ICT (2/27 23:00 UTC)
予報対象時間: 28日7時 ICT ~ 1日13時 ICT
風向・風速東 4m/s
視程10km以上
少しの雲 雲底高度 1,220m
28日23時 ICT ~ 1日1時 ICT に徐々に
風向・風速南 3m/s
1日5時 ICT ~ 1日7時 ICT に徐々に
風向・風速東南東 3m/s
視程8,000m
少しの雲 雲底高度 610m
1日9時 ICT ~ 1日11時 ICT に徐々に
風向・風速南南西 4m/s
視程10km以上
TAF VTBS 272300Z 2800/0106 09008KT 9999 FEW040
BECMG 2816/2818 18005KT
BECMG 2822/2824 12005KT 8000 FEW020
BECMG 0102/0104 20008KT 9999